createdAt,value
2023-03-28T00:00:25.091Z,101183.16
2023-03-28T00:02:48.947Z,101178.44
2023-03-28T00:05:12.597Z,101175.69
2023-03-28T00:07:36.506Z,101169.91
2023-03-28T00:10:01.941Z,101179.53
2023-03-28T00:12:25.933Z,101178.19
2023-03-28T00:14:49.819Z,101190.63
2023-03-28T00:17:13.668Z,101195.34
2023-03-28T00:19:40.793Z,101198.13
2023-03-28T00:22:04.508Z,101200.06
2023-03-28T00:24:28.966Z,101210.84
2023-03-28T00:26:54.995Z,101210.31
2023-03-28T00:29:21.389Z,101212.69
2023-03-28T00:31:45.516Z,101218.03
2023-03-28T00:34:09.661Z,101224.59
2023-03-28T00:36:33.706Z,101228.47
2023-03-28T00:38:58.108Z,101234.91
2023-03-28T00:41:22.952Z,101235.25
2023-03-28T00:43:50.802Z,101239.69
2023-03-28T00:46:24.707Z,101236.97
2023-03-28T00:48:55.654Z,101243.59
2023-03-28T00:51:22.332Z,101238.84
2023-03-28T00:53:47.170Z,101248.78
2023-03-28T00:56:14.276Z,101243.84
2023-03-28T00:58:45.104Z,101248.69
2023-03-28T01:01:14.172Z,101260.19
2023-03-28T01:03:41.402Z,101256.50
2023-03-28T01:06:07.737Z,101265.13
2023-03-28T01:08:40.033Z,101265.94
2023-03-28T01:11:04.198Z,101270.91
2023-03-28T01:13:32.947Z,101272.88
2023-03-28T01:15:57.002Z,101277.06
2023-03-28T01:18:23.879Z,101270.75
2023-03-28T01:21:40.018Z,101280.50
2023-03-28T01:24:43.695Z,101287.94
2023-03-28T01:27:13.144Z,101290.81
2023-03-28T01:30:25.672Z,101289.97
2023-03-28T01:34:02.925Z,101300.47
2023-03-28T01:37:16.376Z,101298.00
2023-03-28T01:40:23.209Z,101303.53
2023-03-28T01:43:08.988Z,101315.06
2023-03-28T01:45:48.364Z,101317.09
2023-03-28T01:48:27.892Z,101325.91
2023-03-28T01:50:58.077Z,101337.16
2023-03-28T01:53:31.361Z,101336.56
2023-03-28T01:56:03.282Z,101336.13
2023-03-28T01:58:36.970Z,101337.19
2023-03-28T02:01:09.099Z,101337.53
2023-03-28T02:03:36.638Z,101340.78
2023-03-28T02:06:27.409Z,101341.50
2023-03-28T02:08:56.164Z,101348.44
2023-03-28T02:11:30.316Z,101336.78
2023-03-28T02:14:17.490Z,101349.63
2023-03-28T02:16:55.085Z,101351.34
2023-03-28T02:20:00.920Z,101356.53
2023-03-28T02:22:50.616Z,101352.72
2023-03-28T02:25:41.810Z,101349.63
2023-03-28T02:28:26.524Z,101347.34
2023-03-28T02:31:25.654Z,101351.16
2023-03-28T02:33:50.839Z,101348.19
2023-03-28T02:36:31.395Z,101354.09
2023-03-28T02:39:19.252Z,101352.53
2023-03-28T02:42:01.376Z,101357.47
2023-03-28T02:44:50.646Z,101368.63
2023-03-28T02:47:20.518Z,101363.88
2023-03-28T02:49:53.566Z,101374.22
2023-03-28T02:52:35.012Z,101377.25
2023-03-28T02:55:03.294Z,101377.50
2023-03-28T02:57:44.205Z,101381.03
2023-03-28T03:00:12.674Z,101383.47
2023-03-28T03:02:37.622Z,101392.72
2023-03-28T03:05:01.856Z,101395.16
2023-03-28T03:07:26.021Z,101396.13
2023-03-28T03:09:53.962Z,101403.59
2023-03-28T03:12:17.827Z,101407.03
2023-03-28T03:14:44.210Z,101404.13
2023-03-28T03:17:31.101Z,101402.78
2023-03-28T03:19:56.013Z,101412.47
2023-03-28T03:22:21.164Z,101410.50
2023-03-28T03:24:48.377Z,101417.97
2023-03-28T03:27:12.282Z,101426.91
2023-03-28T03:29:38.787Z,101421.41
2023-03-28T03:32:09.748Z,101428.22
2023-03-28T03:34:51.458Z,101434.16
2023-03-28T03:37:17.859Z,101443.50
2023-03-28T03:39:41.612Z,101446.56
2023-03-28T03:42:05.625Z,101443.00
2023-03-28T03:44:30.518Z,101450.88
2023-03-28T03:46:54.346Z,101454.84
2023-03-28T03:49:19.475Z,101462.16
2023-03-28T03:51:43.268Z,101465.16
2023-03-28T03:54:12.151Z,101460.91
2023-03-28T03:56:36.855Z,101464.13
2023-03-28T03:59:00.839Z,101467.44
2023-03-28T04:01:30.311Z,101461.09
2023-03-28T04:04:02.473Z,101469.47
2023-03-28T04:06:40.023Z,101467.25
2023-03-28T04:09:05.604Z,101474.88
2023-03-28T04:11:45.397Z,101477.66
2023-03-28T04:14:10.553Z,101488.91
2023-03-28T04:16:41.029Z,101490.09
2023-03-28T04:19:06.117Z,101491.00
2023-03-28T04:21:35.238Z,101499.47
2023-03-28T04:24:02.721Z,101505.78
2023-03-28T04:26:35.820Z,101502.25
2023-03-28T04:29:06.634Z,101512.56
2023-03-28T04:31:36.049Z,101517.66
2023-03-28T04:34:30.940Z,101531.66
2023-03-28T04:37:03.582Z,101536.00
2023-03-28T04:39:36.015Z,101534.00
2023-03-28T04:42:22.683Z,101543.66
2023-03-28T04:45:13.766Z,101553.56
2023-03-28T04:47:40.215Z,101552.31
2023-03-28T04:50:13.076Z,101552.72
2023-03-28T04:52:37.626Z,101566.44
2023-03-28T04:55:03.024Z,101571.50
2023-03-28T04:57:26.965Z,101568.25
2023-03-28T04:59:56.996Z,101574.91
2023-03-28T05:02:41.333Z,101578.41
2023-03-28T05:05:09.324Z,101579.06
2023-03-28T05:07:32.989Z,101585.38
2023-03-28T05:09:56.986Z,101603.59
2023-03-28T05:12:22.009Z,101602.78
2023-03-28T05:14:59.603Z,101611.25
2023-03-28T05:17:23.353Z,101599.41
2023-03-28T05:20:08.484Z,101611.28
2023-03-28T05:22:42.315Z,101613.91
2023-03-28T05:25:08.397Z,101615.91
2023-03-28T05:27:38.228Z,101606.41
2023-03-28T05:30:02.328Z,101611.88
2023-03-28T05:32:28.704Z,101623.31
2023-03-28T05:34:52.815Z,101625.25
2023-03-28T05:37:16.655Z,101627.69
2023-03-28T05:39:45.235Z,101634.78
2023-03-28T05:42:09.944Z,101636.19
2023-03-28T05:44:37.711Z,101641.41
2023-03-28T05:47:21.575Z,101644.13
2023-03-28T05:49:45.314Z,101646.28
2023-03-28T05:52:08.935Z,101647.38
2023-03-28T05:54:32.607Z,101654.94
2023-03-28T05:56:56.454Z,101655.66
2023-03-28T05:59:25.023Z,101658.28
2023-03-28T06:01:52.667Z,101667.31
2023-03-28T06:04:16.761Z,101671.38
2023-03-28T06:06:41.368Z,101665.31
2023-03-28T06:09:05.812Z,101681.56
2023-03-28T06:11:42.324Z,101676.13
2023-03-28T06:14:06.715Z,101686.25
2023-03-28T06:16:31.523Z,101677.84
2023-03-28T06:19:10.481Z,101686.19
2023-03-28T06:21:38.791Z,101690.84
2023-03-28T06:24:03.520Z,101696.47
2023-03-28T06:26:30.421Z,101691.75
2023-03-28T06:28:54.168Z,101695.88
2023-03-28T06:31:19.866Z,101694.72
2023-03-28T06:33:44.647Z,101703.22
2023-03-28T06:36:11.419Z,101697.09
2023-03-28T06:38:35.345Z,101700.81
2023-03-28T06:40:59.250Z,101698.06
2023-03-28T06:43:23.051Z,101705.13
2023-03-28T06:46:03.105Z,101705.75
2023-03-28T06:48:33.167Z,101710.16
2023-03-28T06:51:17.809Z,101710.97
2023-03-28T06:53:42.614Z,101714.34
2023-03-28T06:56:07.662Z,101708.13
2023-03-28T06:58:32.740Z,101706.91
2023-03-28T07:01:03.288Z,101719.59
2023-03-28T07:03:51.993Z,101728.28
2023-03-28T07:06:19.797Z,101727.75
2023-03-28T07:08:43.662Z,101727.88
2023-03-28T07:11:08.583Z,101728.03
2023-03-28T07:13:33.645Z,101722.50
2023-03-28T07:16:04.298Z,101729.09
2023-03-28T07:18:28.172Z,101729.03
2023-03-28T07:21:03.280Z,101731.63
2023-03-28T07:23:29.514Z,101744.59
2023-03-28T07:25:53.366Z,101734.41
2023-03-28T07:28:17.116Z,101749.06
2023-03-28T07:30:40.784Z,101746.53
2023-03-28T07:33:14.520Z,101749.28
2023-03-28T07:35:42.260Z,101752.28
2023-03-28T07:38:10.101Z,101752.22
2023-03-28T07:40:46.637Z,101774.22
2023-03-28T07:43:10.418Z,101768.75
2023-03-28T07:45:34.104Z,101769.16
2023-03-28T07:47:57.758Z,101779.06
2023-03-28T07:50:23.548Z,101781.44
2023-03-28T07:52:48.945Z,101781.00
2023-03-28T07:55:13.482Z,101778.06
2023-03-28T07:57:41.652Z,101791.63
2023-03-28T08:00:24.785Z,101794.94
2023-03-28T08:03:09.268Z,101788.88
2023-03-28T08:05:34.328Z,101790.91
2023-03-28T08:07:59.473Z,101794.53
2023-03-28T08:10:23.313Z,101801.19
2023-03-28T08:12:48.676Z,101803.78
2023-03-28T08:15:13.054Z,101802.69
2023-03-28T08:17:36.828Z,101810.28
2023-03-28T08:20:01.444Z,101812.59
2023-03-28T08:22:26.163Z,101809.72
2023-03-28T08:25:04.736Z,101826.56
2023-03-28T08:27:28.439Z,101808.53
2023-03-28T08:29:57.921Z,101817.34
2023-03-28T08:32:22.951Z,101816.44
2023-03-28T08:34:47.054Z,101826.38
2023-03-28T08:37:14.108Z,101825.94
2023-03-28T08:39:42.677Z,101830.22
2023-03-28T08:42:34.244Z,101822.19
2023-03-28T08:45:36.143Z,101819.03
2023-03-28T08:48:12.888Z,101820.44
2023-03-28T08:50:41.029Z,101823.19
2023-03-28T08:53:06.387Z,101839.28
2023-03-28T08:55:35.261Z,101837.41
2023-03-28T08:58:00.505Z,101846.78
2023-03-28T09:00:29.862Z,101834.91
2023-03-28T09:02:54.255Z,101841.88
2023-03-28T09:05:24.976Z,101839.50
2023-03-28T09:08:03.078Z,101846.63
2023-03-28T09:10:31.977Z,101841.94
2023-03-28T09:13:30.154Z,101861.06
2023-03-28T09:16:23.437Z,101850.75
2023-03-28T09:19:47.881Z,101866.28
2023-03-28T09:22:41.680Z,101874.56
2023-03-28T09:25:24.651Z,101876.81
2023-03-28T09:28:02.789Z,101870.06
2023-03-28T09:30:32.511Z,101869.78
2023-03-28T09:33:01.920Z,101870.44
2023-03-28T09:35:29.827Z,101880.38
2023-03-28T09:37:56.956Z,101887.03
2023-03-28T09:40:25.700Z,101881.97
2023-03-28T09:43:15.021Z,101883.25
2023-03-28T09:45:55.471Z,101899.38
2023-03-28T09:48:40.960Z,101888.66
2023-03-28T09:51:16.216Z,101892.16
2023-03-28T09:53:40.277Z,101899.84
2023-03-28T09:56:11.418Z,101902.97
2023-03-28T09:58:51.391Z,101898.38
2023-03-28T10:01:42.907Z,101893.03
2023-03-28T10:04:38.546Z,101898.16
2023-03-28T10:07:33.168Z,101901.34
2023-03-28T10:10:23.596Z,101895.16
2023-03-28T10:13:07.478Z,101895.78
2023-03-28T10:15:41.805Z,101894.91
2023-03-28T10:18:20.312Z,101907.66
2023-03-28T10:20:53.952Z,101892.69
2023-03-28T10:23:17.869Z,101898.69
2023-03-28T10:25:45.486Z,101899.56
2023-03-28T10:28:15.895Z,101908.56
2023-03-28T10:30:39.878Z,101897.00
2023-03-28T10:33:25.522Z,101887.53
2023-03-28T10:36:31.622Z,101896.09
2023-03-28T10:38:57.362Z,101895.38
2023-03-28T10:41:54.532Z,101903.41
2023-03-28T10:44:37.705Z,101889.38
2023-03-28T10:47:15.524Z,101896.31
2023-03-28T10:49:52.058Z,101898.22
2023-03-28T10:52:28.222Z,101896.06
2023-03-28T10:55:06.986Z,101896.88
2023-03-28T10:57:57.377Z,101904.56
2023-03-28T11:00:28.133Z,101907.44
2023-03-28T11:03:20.199Z,101912.25
2023-03-28T11:06:08.023Z,101904.28
2023-03-28T11:08:47.669Z,101911.13
2023-03-28T11:11:36.205Z,101901.25
2023-03-28T11:14:12.061Z,101898.22
2023-03-28T11:16:48.642Z,101912.69
2023-03-28T11:19:35.892Z,101912.47
2023-03-28T11:22:15.119Z,101912.38
2023-03-28T11:24:51.625Z,101903.25
2023-03-28T11:27:52.652Z,101895.19
2023-03-28T11:30:29.749Z,101908.75
2023-03-28T11:33:23.250Z,101907.31
2023-03-28T11:35:56.238Z,101913.63
2023-03-28T11:38:24.247Z,101920.16
2023-03-28T11:40:58.800Z,101912.31
2023-03-28T11:43:47.918Z,101908.06
2023-03-28T11:46:16.758Z,101912.81
2023-03-28T11:48:47.897Z,101914.91
2023-03-28T11:51:21.332Z,101905.75
2023-03-28T11:53:54.665Z,101926.69
2023-03-28T11:56:36.190Z,101911.47
2023-03-28T11:59:17.042Z,101896.69
2023-03-28T12:01:47.689Z,101898.41
2023-03-28T12:04:15.660Z,101894.09
2023-03-28T12:06:59.572Z,101903.66
2023-03-28T12:09:34.745Z,101909.75
2023-03-28T12:12:10.045Z,101900.13
2023-03-28T12:14:47.185Z,101892.09
2023-03-28T12:17:47.303Z,101901.53
2023-03-28T12:20:20.067Z,101890.03
2023-03-28T12:22:52.502Z,101890.25
2023-03-28T12:25:36.395Z,101897.81
2023-03-28T12:28:10.316Z,101904.63
2023-03-28T12:30:38.702Z,101903.34
2023-03-28T12:33:17.249Z,101895.22
2023-03-28T12:36:03.480Z,101901.31
2023-03-28T12:38:34.169Z,101894.13
2023-03-28T12:41:13.200Z,101890.34
2023-03-28T12:43:46.045Z,101896.63
2023-03-28T12:46:18.421Z,101911.06
2023-03-28T12:48:47.273Z,101899.13
2023-03-28T12:51:17.289Z,101904.00
2023-03-28T12:53:48.376Z,101898.22
2023-03-28T12:56:15.494Z,101897.63
2023-03-28T12:58:40.967Z,101897.81
2023-03-28T13:01:42.974Z,101892.22
2023-03-28T13:04:33.597Z,101894.94
2023-03-28T13:07:18.488Z,101898.84
2023-03-28T13:09:59.185Z,101895.03
2023-03-28T13:12:57.038Z,101903.84
2023-03-28T13:15:32.270Z,101910.41
2023-03-28T13:18:31.613Z,101902.81
2023-03-28T13:20:56.758Z,101891.38
2023-03-28T13:23:27.436Z,101884.75
2023-03-28T13:25:56.256Z,101899.75
2023-03-28T13:28:31.176Z,101889.41
2023-03-28T13:31:09.731Z,101895.81
2023-03-28T13:33:37.223Z,101902.34
2023-03-28T13:36:25.259Z,101900.91
2023-03-28T13:38:51.190Z,101890.31
2023-03-28T13:41:35.915Z,101891.38
2023-03-28T13:44:03.233Z,101904.00
2023-03-28T13:46:33.364Z,101899.00
2023-03-28T13:49:05.812Z,101886.19
2023-03-28T13:51:35.291Z,101891.19
2023-03-28T13:53:58.988Z,101885.28
2023-03-28T13:56:26.360Z,101894.94
2023-03-28T13:58:52.501Z,101896.34
2023-03-28T14:01:19.629Z,101898.53
2023-03-28T14:03:48.508Z,101883.88
2023-03-28T14:06:22.885Z,101889.84
2023-03-28T14:08:50.424Z,101884.31
2023-03-28T14:11:18.081Z,101886.38
2023-03-28T14:13:41.801Z,101883.25
2023-03-28T14:16:10.115Z,101893.84
2023-03-28T14:18:37.649Z,101888.44
2023-03-28T14:21:03.566Z,101895.03
2023-03-28T14:23:31.505Z,101880.81
2023-03-28T14:25:55.379Z,101877.56
2023-03-28T14:28:19.032Z,101881.38
2023-03-28T14:30:43.286Z,101888.50
2023-03-28T14:33:20.443Z,101882.91
2023-03-28T14:35:46.075Z,101879.41
2023-03-28T14:38:16.814Z,101886.88
2023-03-28T14:40:43.480Z,101884.03
2023-03-28T14:43:17.688Z,101875.38
2023-03-28T14:45:47.588Z,101881.94
2023-03-28T14:48:18.185Z,101874.97
2023-03-28T14:50:42.707Z,101886.97
2023-03-28T14:53:09.518Z,101883.28
2023-03-28T14:55:36.900Z,101886.16
2023-03-28T14:58:02.251Z,101886.19
2023-03-28T15:00:36.570Z,101886.78
2023-03-28T15:03:00.704Z,101892.03
2023-03-28T15:05:25.345Z,101890.09
2023-03-28T15:07:57.994Z,101890.66
2023-03-28T15:10:26.305Z,101884.63
2023-03-28T15:13:02.872Z,101879.13
2023-03-28T15:15:30.479Z,101872.22
2023-03-28T15:17:57.236Z,101874.72
2023-03-28T15:20:26.726Z,101874.56
2023-03-28T15:22:56.337Z,101874.25
2023-03-28T15:25:21.866Z,101864.53
2023-03-28T15:27:53.096Z,101858.88
2023-03-28T15:30:20.869Z,101858.88
2023-03-28T15:32:44.939Z,101862.00
2023-03-28T15:35:26.317Z,101861.69
2023-03-28T15:37:50.434Z,101857.78
2023-03-28T15:40:31.145Z,101864.28
2023-03-28T15:42:57.939Z,101856.97
2023-03-28T15:45:38.972Z,101851.75
2023-03-28T15:48:04.211Z,101858.72
2023-03-28T15:50:33.464Z,101853.34
2023-03-28T15:53:02.196Z,101858.91
2023-03-28T15:55:28.211Z,101850.63
2023-03-28T15:57:51.989Z,101846.97
2023-03-28T16:00:43.421Z,101855.97
2023-03-28T16:03:34.648Z,101851.50
2023-03-28T16:06:30.897Z,101854.22
2023-03-28T16:09:14.422Z,101861.22
2023-03-28T16:11:38.638Z,101859.94
2023-03-28T16:14:21.792Z,101861.69
2023-03-28T16:17:09.184Z,101863.50
2023-03-28T16:19:42.088Z,101867.03
2023-03-28T16:22:05.961Z,101868.66
2023-03-28T16:24:29.666Z,101856.31
2023-03-28T16:26:53.436Z,101863.38
2023-03-28T16:29:17.269Z,101854.78
2023-03-28T16:31:41.493Z,101848.88
2023-03-28T16:34:09.218Z,101862.13
2023-03-28T16:36:33.796Z,101854.75
2023-03-28T16:38:57.519Z,101859.66
2023-03-28T16:41:21.834Z,101853.63
2023-03-28T16:43:45.684Z,101863.75
2023-03-28T16:46:12.255Z,101857.06
2023-03-28T16:48:36.558Z,101851.72
2023-03-28T16:51:05.150Z,101853.59
2023-03-28T16:53:29.113Z,101854.75
2023-03-28T16:55:53.965Z,101855.03
2023-03-28T16:58:17.742Z,101849.91
2023-03-28T17:00:43.525Z,101854.03
2023-03-28T17:03:07.311Z,101855.28
2023-03-28T17:05:31.331Z,101856.22
2023-03-28T17:07:56.373Z,101845.41
2023-03-28T17:10:20.737Z,101840.16
2023-03-28T17:12:44.342Z,101848.50
2023-03-28T17:15:10.093Z,101834.84
2023-03-28T17:17:33.731Z,101838.63
2023-03-28T17:19:57.419Z,101836.22
2023-03-28T17:22:21.264Z,101840.41
2023-03-28T17:24:47.155Z,101846.16
2023-03-28T17:27:10.881Z,101847.50
2023-03-28T17:29:34.604Z,101833.81
2023-03-28T17:31:58.329Z,101840.38
2023-03-28T17:34:22.238Z,101841.88
2023-03-28T17:36:45.885Z,101836.81
2023-03-28T17:39:10.556Z,101838.00
2023-03-28T17:41:37.747Z,101838.47
2023-03-28T17:44:02.388Z,101841.75
2023-03-28T17:46:26.628Z,101849.34
2023-03-28T17:48:50.940Z,101844.47
2023-03-28T17:51:15.346Z,101844.88
2023-03-28T17:53:41.331Z,101839.75
2023-03-28T17:56:05.069Z,101843.81
2023-03-28T17:58:30.432Z,101841.53
2023-03-28T18:00:54.403Z,101848.94
2023-03-28T18:03:18.233Z,101844.91
2023-03-28T18:06:04.043Z,101853.50
2023-03-28T18:08:28.262Z,101850.25
2023-03-28T18:10:51.926Z,101853.25
2023-03-28T18:13:16.077Z,101840.78
2023-03-28T18:15:42.236Z,101844.06
2023-03-28T18:18:06.348Z,101839.94
2023-03-28T18:20:30.414Z,101839.63
2023-03-28T18:22:54.159Z,101846.84
2023-03-28T18:25:17.952Z,101847.25
2023-03-28T18:27:41.634Z,101845.59
2023-03-28T18:30:08.324Z,101848.66
2023-03-28T18:32:33.881Z,101845.19
2023-03-28T18:34:57.518Z,101853.53
2023-03-28T18:37:21.241Z,101849.31
2023-03-28T18:39:45.355Z,101850.59
2023-03-28T18:42:09.279Z,101846.28
2023-03-28T18:44:35.667Z,101843.81
2023-03-28T18:46:59.337Z,101854.88
2023-03-28T18:49:25.229Z,101852.25
2023-03-28T18:51:49.357Z,101856.94
2023-03-28T18:54:12.920Z,101863.31
2023-03-28T18:56:36.593Z,101860.84
2023-03-28T18:59:01.117Z,101859.28
2023-03-28T19:01:24.911Z,101858.63
2023-03-28T19:03:49.962Z,101856.19
2023-03-28T19:06:16.396Z,101856.50
2023-03-28T19:08:40.364Z,101848.59
2023-03-28T19:11:11.847Z,101851.34
2023-03-28T19:13:35.639Z,101855.09
2023-03-28T19:16:00.450Z,101857.03
2023-03-28T19:18:24.341Z,101853.69
2023-03-28T19:20:51.033Z,101855.63
2023-03-28T19:23:16.194Z,101849.53
2023-03-28T19:25:40.162Z,101856.88
2023-03-28T19:28:03.908Z,101854.63
2023-03-28T19:30:29.395Z,101851.94
2023-03-28T19:32:53.430Z,101859.91
2023-03-28T19:35:17.228Z,101854.63
2023-03-28T19:37:40.906Z,101859.94
2023-03-28T19:40:09.252Z,101859.84
2023-03-28T19:42:34.366Z,101858.34
2023-03-28T19:44:58.144Z,101860.19
2023-03-28T19:47:21.969Z,101860.38
2023-03-28T19:49:46.262Z,101861.41
2023-03-28T19:52:10.970Z,101857.94
2023-03-28T19:54:35.137Z,101854.47
2023-03-28T19:57:00.297Z,101849.22
2023-03-28T19:59:23.868Z,101843.66
2023-03-28T20:01:47.673Z,101850.25
2023-03-28T20:04:12.167Z,101840.56
2023-03-28T20:06:35.862Z,101843.88
2023-03-28T20:08:59.637Z,101837.97
2023-03-28T20:11:23.524Z,101845.22
2023-03-28T20:13:48.660Z,101842.66
2023-03-28T20:16:15.315Z,101849.88
2023-03-28T20:18:39.131Z,101845.59
2023-03-28T20:21:05.099Z,101847.50
2023-03-28T20:23:30.507Z,101849.19
2023-03-28T20:25:55.151Z,101847.66
2023-03-28T20:28:19.089Z,101843.44
2023-03-28T20:30:46.604Z,101840.94
2023-03-28T20:33:10.224Z,101835.84
2023-03-28T20:35:34.381Z,101836.88
2023-03-28T20:37:59.013Z,101824.44
2023-03-28T20:40:23.600Z,101823.69
2023-03-28T20:42:50.282Z,101824.63
2023-03-28T20:45:22.051Z,101824.00
2023-03-28T20:47:50.063Z,101809.81
2023-03-28T20:50:14.929Z,101817.94
2023-03-28T20:52:39.963Z,101813.59
2023-03-28T20:55:03.642Z,101813.81
2023-03-28T20:57:30.370Z,101815.66
2023-03-28T20:59:55.620Z,101808.66
2023-03-28T21:02:23.216Z,101816.75
2023-03-28T21:04:49.503Z,101811.69
2023-03-28T21:07:14.263Z,101804.72
2023-03-28T21:09:41.217Z,101805.91
2023-03-28T21:12:05.183Z,101802.72
2023-03-28T21:14:29.316Z,101792.22
2023-03-28T21:16:54.408Z,101795.47
2023-03-28T21:19:19.330Z,101792.00
2023-03-28T21:21:44.415Z,101792.09
2023-03-28T21:24:09.153Z,101786.56
2023-03-28T21:26:33.032Z,101800.22
2023-03-28T21:28:56.651Z,101798.75
2023-03-28T21:31:24.747Z,101793.56
2023-03-28T21:33:49.749Z,101790.56
2023-03-28T21:36:17.096Z,101795.03
2023-03-28T21:38:42.098Z,101782.66
2023-03-28T21:41:07.450Z,101787.50
2023-03-28T21:43:31.301Z,101787.41
2023-03-28T21:45:55.062Z,101785.47
2023-03-28T21:48:19.064Z,101782.00
2023-03-28T21:50:42.949Z,101782.97
2023-03-28T21:53:06.838Z,101780.16
2023-03-28T21:55:32.650Z,101777.66
2023-03-28T21:57:56.257Z,101780.25
2023-03-28T22:00:20.748Z,101769.63
2023-03-28T22:02:45.551Z,101775.56
2023-03-28T22:05:26.249Z,101774.94
2023-03-28T22:07:52.884Z,101766.06
2023-03-28T22:10:17.310Z,101768.94
2023-03-28T22:12:44.815Z,101766.22
2023-03-28T22:15:13.805Z,101772.28
2023-03-28T22:17:40.676Z,101774.16
2023-03-28T22:20:07.727Z,101764.16
2023-03-28T22:22:35.749Z,101757.91
2023-03-28T22:25:00.507Z,101764.31
2023-03-28T22:27:24.147Z,101758.94
2023-03-28T22:29:49.289Z,101754.03
2023-03-28T22:32:12.966Z,101765.66
2023-03-28T22:34:36.531Z,101768.38
2023-03-28T22:37:00.164Z,101766.09
2023-03-28T22:39:24.666Z,101759.03
2023-03-28T22:41:48.931Z,101761.66
2023-03-28T22:44:12.646Z,101759.94
2023-03-28T22:46:41.051Z,101758.31
2023-03-28T22:49:04.853Z,101757.47
2023-03-28T22:51:29.837Z,101754.91
2023-03-28T22:53:53.846Z,101755.13
2023-03-28T22:56:17.981Z,101757.56
2023-03-28T22:58:41.639Z,101746.63
2023-03-28T23:01:05.913Z,101733.47
2023-03-28T23:03:31.223Z,101726.72
2023-03-28T23:05:55.092Z,101725.78
2023-03-28T23:08:19.403Z,101734.63
2023-03-28T23:10:43.046Z,101732.94
2023-03-28T23:13:06.845Z,101726.19
2023-03-28T23:15:30.681Z,101726.00
2023-03-28T23:17:54.406Z,101724.06
2023-03-28T23:20:19.874Z,101726.00
2023-03-28T23:22:46.192Z,101726.19
2023-03-28T23:25:12.426Z,101720.88
2023-03-28T23:27:36.139Z,101717.41
2023-03-28T23:29:59.815Z,101719.34
2023-03-28T23:32:23.729Z,101714.03
2023-03-28T23:34:47.388Z,101714.25
2023-03-28T23:37:14.106Z,101713.34
2023-03-28T23:39:39.309Z,101710.94
2023-03-28T23:42:02.944Z,101700.53
2023-03-28T23:44:27.933Z,101698.47
2023-03-28T23:46:51.566Z,101687.22
2023-03-28T23:49:15.205Z,101684.53
2023-03-28T23:51:38.827Z,101675.94
2023-03-28T23:54:03.917Z,101670.88
2023-03-28T23:56:28.182Z,101661.13
2023-03-28T23:58:52.041Z,101663.91
